createdAt,value
2023-03-20T00:02:19.689Z,27.04
2023-03-20T00:04:47.718Z,27.23
2023-03-20T00:07:15.824Z,27.01
2023-03-20T00:09:43.801Z,26.92
2023-03-20T00:12:12.241Z,27.14
2023-03-20T00:14:40.161Z,27.15
2023-03-20T00:17:11.441Z,27.07
2023-03-20T00:19:40.919Z,26.81
2023-03-20T00:22:09.949Z,26.76
2023-03-20T00:24:37.991Z,26.96
2023-03-20T00:27:06.182Z,27.05
2023-03-20T00:29:34.577Z,27.10
2023-03-20T00:32:02.543Z,27.02
2023-03-20T00:34:31.550Z,26.83
2023-03-20T00:37:01.153Z,26.92
2023-03-20T00:39:29.089Z,26.82
2023-03-20T00:41:57.367Z,27.18
2023-03-20T00:44:25.959Z,26.95
2023-03-20T00:46:55.590Z,26.72
2023-03-20T00:49:26.368Z,26.76
2023-03-20T00:51:54.377Z,26.89
2023-03-20T00:54:25.464Z,27.09
2023-03-20T00:56:55.919Z,26.89
2023-03-20T00:59:25.635Z,26.92
2023-03-20T01:01:53.610Z,26.97
2023-03-20T01:04:21.592Z,26.94
2023-03-20T01:06:49.624Z,26.95
2023-03-20T01:09:17.523Z,27.04
2023-03-20T01:11:47.317Z,27.17
2023-03-20T01:14:16.101Z,27.07
2023-03-20T01:16:44.108Z,27.11
2023-03-20T01:19:13.014Z,27.18
2023-03-20T01:21:40.942Z,27.07
2023-03-20T01:24:09.217Z,26.96
2023-03-20T01:26:38.003Z,27.00
2023-03-20T01:29:08.522Z,27.09
2023-03-20T01:31:36.669Z,26.80
2023-03-20T01:34:04.952Z,27.04
2023-03-20T01:36:32.918Z,27.29
2023-03-20T01:39:02.163Z,27.09
2023-03-20T01:41:30.471Z,27.18
2023-03-20T01:43:58.494Z,26.99
2023-03-20T01:46:28.649Z,26.93
2023-03-20T01:49:09.335Z,27.37
2023-03-20T01:51:37.796Z,27.27
2023-03-20T01:54:08.552Z,27.16
2023-03-20T01:56:38.341Z,27.05
2023-03-20T01:59:07.941Z,27.32
2023-03-20T02:01:37.445Z,27.26
2023-03-20T02:04:05.781Z,27.21
2023-03-20T02:06:33.852Z,27.31
2023-03-20T02:09:01.837Z,27.01
2023-03-20T02:11:29.868Z,26.99
2023-03-20T02:13:59.407Z,27.29
2023-03-20T02:16:27.862Z,27.33
2023-03-20T02:18:57.810Z,27.13
2023-03-20T02:22:04.511Z,27.30
2023-03-20T02:24:46.977Z,27.06
2023-03-20T02:27:16.863Z,27.16
2023-03-20T02:29:53.707Z,27.00
2023-03-20T02:33:10.332Z,27.08
2023-03-20T02:36:07.738Z,27.01
2023-03-20T02:38:54.371Z,26.92
2023-03-20T02:41:24.830Z,26.94
2023-03-20T02:43:56.553Z,26.80
2023-03-20T02:46:29.298Z,26.86
2023-03-20T02:48:58.505Z,26.98
2023-03-20T02:51:30.403Z,26.90
2023-03-20T02:54:01.984Z,27.04
2023-03-20T02:56:32.090Z,26.92
2023-03-20T02:59:03.725Z,26.84
2023-03-20T03:01:33.329Z,26.78
2023-03-20T03:04:02.250Z,26.95
2023-03-20T03:06:32.578Z,26.99
2023-03-20T03:09:03.882Z,26.87
2023-03-20T03:11:32.220Z,26.71
2023-03-20T03:14:00.245Z,27.00
2023-03-20T03:16:29.654Z,26.97
2023-03-20T03:19:03.200Z,26.95
2023-03-20T03:21:31.469Z,26.96
2023-03-20T03:23:59.888Z,26.96
2023-03-20T03:26:35.294Z,27.14
2023-03-20T03:29:06.051Z,26.87
2023-03-20T03:31:34.205Z,26.93
2023-03-20T03:34:02.226Z,26.84
2023-03-20T03:36:39.165Z,27.03
2023-03-20T03:39:11.093Z,27.35
2023-03-20T03:41:41.884Z,27.13
2023-03-20T03:44:13.057Z,27.15
2023-03-20T03:46:44.758Z,27.25
2023-03-20T03:49:16.555Z,27.13
2023-03-20T03:51:44.973Z,27.38
2023-03-20T03:54:14.171Z,27.24
2023-03-20T03:56:44.407Z,27.59
2023-03-20T03:59:16.855Z,27.30
2023-03-20T04:01:45.086Z,27.25
2023-03-20T04:04:14.036Z,27.27
2023-03-20T04:06:42.473Z,27.16
2023-03-20T04:09:10.604Z,27.39
2023-03-20T04:11:38.540Z,27.54
2023-03-20T04:14:08.008Z,27.90
2023-03-20T04:16:36.096Z,27.64
2023-03-20T04:19:04.248Z,27.88
2023-03-20T04:21:32.198Z,27.98
2023-03-20T04:24:00.203Z,28.02
2023-03-20T04:26:28.274Z,27.85
2023-03-20T04:28:56.446Z,28.20
2023-03-20T04:31:25.795Z,28.00
2023-03-20T04:33:56.261Z,28.13
2023-03-20T04:36:24.169Z,28.21
2023-03-20T04:38:52.133Z,28.03
2023-03-20T04:41:21.218Z,27.93
2023-03-20T04:43:49.164Z,28.18
2023-03-20T04:46:17.222Z,27.92
2023-03-20T04:48:46.607Z,27.88
2023-03-20T04:51:14.559Z,27.97
2023-03-20T04:53:42.568Z,27.83
2023-03-20T04:56:10.959Z,28.04
2023-03-20T04:58:39.129Z,27.77
2023-03-20T05:01:07.533Z,27.81
2023-03-20T05:03:35.549Z,27.98
2023-03-20T05:06:05.672Z,27.71
2023-03-20T05:08:33.701Z,27.95
2023-03-20T05:11:01.660Z,27.81
2023-03-20T05:13:29.676Z,27.80
2023-03-20T05:15:57.608Z,27.87
2023-03-20T05:18:25.648Z,27.92
2023-03-20T05:20:53.593Z,27.84
2023-03-20T05:23:23.002Z,27.89
2023-03-20T05:25:51.014Z,27.82
2023-03-20T05:28:19.056Z,27.83
2023-03-20T05:30:47.074Z,27.90
2023-03-20T05:33:15.047Z,27.90
2023-03-20T05:35:43.146Z,27.65
2023-03-20T05:38:11.291Z,27.79
2023-03-20T05:40:41.942Z,28.02
2023-03-20T05:43:09.998Z,28.03
2023-03-20T05:45:38.050Z,27.84
2023-03-20T05:48:06.993Z,28.02
2023-03-20T05:50:56.395Z,28.02
2023-03-20T05:53:24.381Z,27.95
2023-03-20T05:55:53.680Z,27.92
2023-03-20T05:58:21.603Z,28.03
2023-03-20T06:00:49.497Z,28.08
2023-03-20T06:03:17.633Z,28.16
2023-03-20T06:05:45.990Z,28.23
2023-03-20T06:08:13.866Z,28.23
2023-03-20T06:10:41.878Z,28.48
2023-03-20T06:13:11.369Z,28.86
2023-03-20T06:15:39.572Z,28.06
2023-03-20T06:18:10.746Z,28.19
2023-03-20T06:24:19.271Z,28.31
2023-03-20T06:26:49.120Z,27.96
2023-03-20T06:29:18.469Z,27.97
2023-03-20T06:31:46.710Z,28.18
2023-03-20T06:34:14.890Z,28.03
2023-03-20T06:36:45.166Z,28.33
2023-03-20T06:39:13.579Z,28.29
2023-03-20T06:41:41.816Z,28.26
2023-03-20T06:44:09.834Z,28.20
2023-03-20T06:46:39.300Z,28.49
2023-03-20T06:49:07.489Z,29.15
2023-03-20T06:52:14.241Z,29.62
2023-03-20T06:54:42.617Z,29.47
2023-03-20T06:57:10.601Z,30.15
2023-03-20T06:59:38.606Z,29.26
2023-03-20T07:02:08.563Z,29.67
2023-03-20T07:04:37.237Z,29.20
2023-03-20T07:07:05.275Z,29.45
2023-03-20T07:09:33.369Z,29.52
2023-03-20T07:12:01.358Z,29.43
2023-03-20T07:14:29.404Z,29.59
2023-03-20T07:16:57.615Z,29.85
2023-03-20T07:19:27.788Z,30.01
2023-03-20T07:25:47.621Z,30.23
2023-03-20T07:28:15.950Z,30.09
2023-03-20T07:30:44.360Z,30.42
2023-03-20T07:33:12.357Z,30.11
2023-03-20T08:01:01.291Z,30.21
2023-03-20T08:03:30.797Z,29.76
2023-03-20T08:21:56.583Z,29.89
2023-03-20T08:24:28.997Z,30.04
2023-03-20T08:26:57.008Z,30.17
2023-03-20T08:29:25.021Z,30.54
2023-03-20T08:31:52.985Z,30.45
2023-03-20T08:34:23.889Z,30.79
2023-03-20T08:36:52.725Z,31.10
2023-03-20T08:39:20.690Z,31.37
2023-03-20T08:41:50.080Z,31.42
2023-03-20T08:44:18.107Z,31.24
2023-03-20T08:46:46.734Z,31.85
2023-03-20T08:49:14.807Z,31.65
2023-03-20T08:51:43.175Z,31.52
2023-03-20T08:54:11.183Z,33.51
2023-03-20T08:56:39.107Z,33.28
2023-03-20T08:59:08.715Z,32.95
2023-03-20T09:01:48.838Z,33.59
2023-03-20T09:04:17.580Z,33.47
2023-03-20T09:06:45.581Z,33.42
2023-03-20T09:09:15.882Z,34.85
2023-03-20T09:11:43.979Z,34.95
2023-03-20T09:14:13.271Z,34.64
2023-03-20T09:16:41.467Z,34.30
2023-03-20T09:19:09.430Z,34.66
2023-03-20T09:21:37.579Z,34.24
2023-03-20T09:24:06.075Z,34.81
2023-03-20T09:26:34.142Z,34.49
2023-03-20T09:29:02.113Z,34.47
2023-03-20T09:31:31.661Z,34.37
2023-03-20T09:33:59.688Z,34.24
2023-03-20T09:36:27.803Z,33.98
2023-03-20T09:38:56.087Z,34.13
2023-03-20T09:41:27.559Z,34.36
2023-03-20T09:44:02.159Z,34.52
2023-03-20T09:46:39.197Z,33.79
2023-03-20T09:49:11.607Z,34.14
2023-03-20T09:51:41.739Z,33.99
2023-03-20T09:54:12.551Z,34.01
2023-03-20T09:56:40.835Z,34.32
2023-03-20T09:59:08.845Z,34.40
2023-03-20T10:01:43.477Z,34.21
2023-03-20T10:04:11.631Z,34.26
2023-03-20T10:06:39.741Z,34.38
2023-03-20T10:09:13.373Z,34.03
2023-03-20T10:11:53.647Z,34.20
2023-03-20T10:14:25.875Z,34.23
2023-03-20T10:17:02.638Z,34.46
2023-03-20T10:19:31.314Z,34.66
2023-03-20T10:22:02.683Z,34.44
2023-03-20T10:24:31.296Z,34.45
2023-03-20T10:27:01.698Z,34.62
2023-03-20T10:29:34.216Z,34.66
2023-03-20T10:32:07.334Z,34.68
2023-03-20T10:34:48.449Z,35.06
2023-03-20T10:37:24.056Z,34.99
2023-03-20T10:39:56.381Z,34.74
2023-03-20T10:42:25.461Z,35.29
2023-03-20T10:44:56.107Z,34.91
2023-03-20T10:47:26.463Z,35.15
2023-03-20T10:49:55.856Z,35.04
2023-03-20T10:52:26.474Z,34.95
2023-03-20T10:54:55.950Z,34.99
2023-03-20T10:57:24.519Z,35.31
2023-03-20T10:59:52.756Z,35.18
2023-03-20T11:02:22.325Z,35.10
2023-03-20T11:04:51.698Z,35.81
2023-03-20T11:07:24.345Z,35.67
2023-03-20T11:10:13.553Z,35.94
2023-03-20T11:12:42.689Z,35.46
2023-03-20T11:15:20.724Z,35.57
2023-03-20T11:17:53.876Z,35.38
2023-03-20T11:20:23.371Z,35.79
2023-03-20T11:22:51.710Z,35.80
2023-03-20T11:25:25.481Z,35.43
2023-03-20T11:27:53.560Z,35.47
2023-03-20T11:30:21.663Z,35.81
2023-03-20T11:32:50.046Z,35.83
2023-03-20T11:35:23.880Z,35.86
2023-03-20T11:37:53.072Z,35.81
2023-03-20T11:40:23.520Z,35.21
2023-03-20T11:42:54.829Z,35.33
2023-03-20T11:45:22.784Z,35.60
2023-03-20T11:47:51.367Z,35.44
2023-03-20T11:50:28.551Z,35.30
2023-03-20T11:52:56.669Z,35.11
2023-03-20T11:55:26.474Z,35.23
2023-03-20T11:57:57.594Z,35.07
2023-03-20T12:00:26.945Z,35.42
2023-03-20T12:02:54.976Z,35.41
2023-03-20T12:05:32.962Z,35.14
2023-03-20T12:08:03.335Z,35.91
2023-03-20T12:10:33.895Z,35.33
2023-03-20T12:13:03.520Z,35.36
2023-03-20T12:15:33.198Z,35.08
2023-03-20T12:18:02.703Z,35.38
2023-03-20T12:20:36.625Z,35.89
2023-03-20T12:23:15.133Z,35.63
2023-03-20T12:25:47.645Z,35.48
2023-03-20T12:28:19.081Z,35.12
2023-03-20T12:30:52.918Z,35.59
2023-03-20T12:33:23.186Z,35.08
2023-03-20T12:35:52.927Z,35.42
2023-03-20T12:38:25.734Z,35.53
2023-03-20T12:40:56.496Z,35.33
2023-03-20T12:43:26.631Z,35.32
2023-03-20T12:45:56.133Z,35.30
2023-03-20T12:48:35.478Z,35.39
2023-03-20T12:51:06.752Z,35.97
2023-03-20T12:53:41.260Z,36.03
2023-03-20T12:56:16.504Z,36.15
2023-03-20T12:58:45.891Z,36.43
2023-03-20T13:01:16.049Z,36.23
2023-03-20T13:04:19.767Z,36.64
2023-03-20T13:06:52.697Z,37.54
2023-03-20T13:09:44.891Z,37.15
2023-03-20T13:12:18.018Z,36.65
2023-03-20T13:14:48.503Z,37.07
2023-03-20T13:17:19.314Z,36.78
2023-03-20T13:19:50.958Z,37.38
2023-03-20T13:22:22.217Z,37.14
2023-03-20T13:24:51.758Z,36.82
2023-03-20T13:27:26.825Z,37.51
2023-03-20T13:29:57.795Z,36.95
2023-03-20T13:32:34.346Z,36.96
2023-03-20T13:35:18.506Z,36.51
2023-03-20T13:37:49.329Z,36.44
2023-03-20T13:40:33.284Z,37.16
2023-03-20T13:43:13.449Z,36.82
2023-03-20T13:45:42.293Z,37.10
2023-03-20T13:48:20.310Z,37.41
2023-03-20T13:50:50.776Z,38.15
2023-03-20T13:53:26.839Z,38.42
2023-03-20T13:56:04.431Z,38.37
2023-03-20T13:58:43.256Z,38.19
2023-03-20T14:01:13.245Z,38.58
2023-03-20T14:03:41.987Z,38.06
2023-03-20T14:10:20.311Z,38.50
2023-03-20T14:12:55.824Z,38.03
2023-03-20T14:15:23.873Z,38.12
2023-03-20T14:17:52.258Z,38.28
2023-03-20T14:20:24.708Z,38.53
2023-03-20T14:34:17.940Z,39.89
2023-03-20T14:37:47.118Z,40.12
2023-03-20T14:40:17.135Z,42.63
2023-03-20T14:42:51.201Z,42.06
2023-03-20T14:45:29.253Z,41.79
2023-03-20T14:47:59.527Z,42.00
2023-03-20T14:50:30.769Z,42.82
2023-03-20T14:53:04.644Z,41.04
2023-03-20T14:55:37.372Z,42.19
2023-03-20T14:58:06.982Z,40.68
2023-03-20T15:00:37.259Z,40.66
2023-03-20T15:03:07.987Z,41.13
2023-03-20T15:05:38.986Z,40.68
2023-03-20T15:08:08.935Z,40.24
2023-03-20T15:10:39.175Z,39.68
2023-03-20T15:13:07.745Z,39.91
2023-03-20T15:15:35.725Z,39.47
2023-03-20T15:18:08.699Z,39.64
2023-03-20T15:20:38.416Z,39.12
2023-03-20T15:23:06.825Z,40.07
2023-03-20T15:25:37.803Z,39.68
2023-03-20T15:28:06.925Z,39.35
2023-03-20T15:30:39.031Z,38.95
2023-03-20T15:33:07.233Z,39.10
2023-03-20T15:35:35.311Z,39.38
2023-03-20T15:38:08.338Z,39.49
2023-03-20T15:40:50.121Z,39.11
2023-03-20T15:43:20.604Z,39.69
2023-03-20T15:45:48.767Z,39.35
2023-03-20T15:48:18.647Z,40.23
2023-03-20T15:50:49.355Z,39.34
2023-03-20T15:53:20.259Z,40.01
2023-03-20T15:55:49.617Z,40.27
2023-03-20T15:58:17.598Z,39.83
2023-03-20T16:00:45.983Z,41.56
2023-03-20T16:03:16.984Z,39.95
2023-03-20T16:05:45.165Z,40.23
2023-03-20T16:08:13.705Z,40.93
2023-03-20T16:10:44.207Z,40.11
2023-03-20T16:13:13.220Z,40.36
2023-03-20T16:15:41.240Z,40.60
2023-03-20T16:18:09.240Z,40.85
2023-03-20T16:20:39.163Z,40.80
2023-03-20T16:23:08.251Z,41.17
2023-03-20T16:25:36.611Z,40.24
2023-03-20T16:28:07.203Z,41.10
2023-03-20T16:30:35.594Z,41.59
2023-03-20T16:33:07.089Z,41.63
2023-03-20T16:35:38.662Z,40.90
2023-03-20T16:38:16.555Z,41.53
2023-03-20T16:40:44.541Z,41.40
2023-03-20T16:43:16.159Z,41.43
2023-03-20T16:45:45.158Z,41.42
2023-03-20T16:48:26.737Z,41.04
2023-03-20T16:50:57.645Z,41.41
2023-03-20T16:53:26.516Z,40.58
2023-03-20T16:55:54.515Z,41.40
2023-03-20T16:58:25.208Z,41.43
2023-03-20T17:00:54.151Z,41.39
2023-03-20T17:03:27.592Z,40.71
2023-03-20T17:05:56.780Z,41.29
2023-03-20T17:08:29.016Z,41.13
2023-03-20T17:10:59.094Z,41.68
2023-03-20T17:13:28.401Z,40.46
2023-03-20T17:15:56.556Z,40.98
2023-03-20T17:18:24.890Z,40.19
2023-03-20T17:20:52.883Z,40.87
2023-03-20T17:23:21.911Z,40.35
2023-03-20T17:25:50.236Z,40.35
2023-03-20T17:28:20.613Z,40.54
2023-03-20T17:30:50.924Z,40.23
2023-03-20T17:33:21.130Z,42.24
2023-03-20T17:35:49.362Z,40.57
2023-03-20T17:38:19.004Z,40.56
2023-03-20T17:40:47.029Z,40.58
2023-03-20T17:43:15.662Z,40.17
2023-03-20T17:45:43.781Z,40.63
2023-03-20T17:48:16.609Z,39.96
2023-03-20T17:50:45.300Z,40.12
2023-03-20T17:53:17.731Z,40.46
2023-03-20T17:55:46.043Z,40.24
2023-03-20T17:58:18.582Z,40.33
2023-03-20T18:00:46.595Z,40.27
2023-03-20T18:03:18.193Z,40.20
2023-03-20T18:05:46.596Z,39.99
2023-03-20T18:08:16.227Z,40.13
2023-03-20T18:10:44.344Z,39.76
2023-03-20T18:13:12.346Z,40.16
2023-03-20T18:15:40.622Z,41.28
2023-03-20T18:18:09.080Z,40.44
2023-03-20T18:20:39.638Z,40.86
2023-03-20T18:23:07.603Z,41.18
2023-03-20T18:25:35.802Z,41.14
2023-03-20T18:28:04.905Z,41.32
2023-03-20T18:30:35.403Z,40.90
2023-03-20T18:33:03.485Z,41.14
2023-03-20T18:35:31.530Z,40.12
2023-03-20T18:38:00.944Z,41.07
2023-03-20T18:40:29.621Z,41.32
2023-03-20T18:42:58.180Z,41.71
2023-03-20T18:45:27.361Z,41.20
2023-03-20T18:47:55.695Z,40.46
2023-03-20T18:50:25.274Z,40.38
2023-03-20T18:53:14.877Z,40.70
2023-03-20T18:55:42.942Z,40.38
2023-03-20T18:58:16.858Z,40.71
2023-03-20T19:00:44.812Z,40.59
2023-03-20T19:03:12.745Z,41.75
2023-03-20T19:05:40.875Z,41.55
2023-03-20T19:08:08.884Z,40.51
2023-03-20T19:10:39.468Z,40.28
2023-03-20T19:13:08.330Z,40.17
2023-03-20T19:15:37.337Z,40.34
2023-03-20T19:18:05.944Z,40.14
2023-03-20T19:20:36.282Z,39.71
2023-03-20T19:23:56.984Z,40.03
2023-03-20T19:26:27.340Z,40.52
2023-03-20T19:28:55.561Z,40.50
2023-03-20T19:31:23.903Z,40.58
2023-03-20T19:33:52.466Z,40.25
2023-03-20T19:36:24.222Z,40.28
2023-03-20T19:38:52.443Z,39.61
2023-03-20T19:41:20.549Z,40.11
2023-03-20T19:43:53.510Z,40.25
2023-03-20T19:46:38.613Z,40.36
2023-03-20T19:49:08.246Z,40.40
2023-03-20T19:51:36.428Z,40.81
2023-03-20T19:54:04.552Z,39.74
2023-03-20T19:56:34.563Z,39.63
2023-03-20T19:59:05.770Z,39.52
2023-03-20T20:01:33.989Z,39.64
2023-03-20T20:04:02.072Z,39.64
2023-03-20T20:06:32.624Z,39.89
2023-03-20T20:09:01.513Z,39.72
2023-03-20T20:11:29.768Z,39.92
2023-03-20T20:14:06.642Z,39.64
2023-03-20T20:16:36.977Z,39.98
2023-03-20T20:19:05.208Z,39.54
2023-03-20T20:28:12.880Z,38.97
2023-03-20T20:30:40.904Z,39.63
2023-03-20T20:33:10.510Z,39.01
2023-03-20T20:36:01.438Z,39.19
2023-03-20T20:38:48.275Z,39.03
2023-03-20T20:41:14.589Z,39.20
2023-03-20T20:44:14.065Z,38.60
2023-03-20T20:46:31.018Z,39.24
2023-03-20T20:49:16.314Z,38.80
2023-03-20T20:51:47.108Z,39.29
2023-03-20T20:58:06.209Z,38.60
2023-03-20T21:00:47.996Z,38.26
2023-03-20T21:03:18.014Z,38.84
2023-03-20T21:05:47.512Z,38.67
2023-03-20T21:08:16.426Z,38.57
2023-03-20T21:10:45.694Z,38.84
2023-03-20T21:13:13.798Z,38.43
2023-03-20T21:15:42.133Z,39.22
2023-03-20T21:18:10.280Z,38.49
2023-03-20T21:20:38.945Z,38.63
2023-03-20T21:23:08.275Z,38.26
2023-03-20T21:25:40.548Z,38.35
2023-03-20T21:28:09.955Z,38.38
2023-03-20T21:30:44.301Z,38.27
2023-03-20T21:33:19.076Z,38.39
2023-03-20T21:35:47.158Z,38.21
2023-03-20T21:41:09.158Z,38.38
2023-03-20T21:43:37.152Z,38.41
2023-03-20T21:58:03.464Z,37.73
2023-03-20T22:02:59.694Z,37.41
2023-03-20T22:12:20.354Z,37.29
2023-03-20T22:15:01.333Z,37.52
2023-03-20T22:26:18.104Z,37.50
2023-03-20T22:29:17.674Z,37.67
2023-03-20T22:31:48.211Z,37.59
2023-03-20T22:34:39.532Z,37.37
2023-03-20T22:37:34.461Z,37.43
2023-03-20T22:45:12.266Z,37.42
2023-03-20T22:47:40.701Z,37.20
2023-03-20T22:50:09.804Z,37.00
2023-03-20T22:52:48.676Z,37.12
2023-03-20T22:55:17.785Z,37.37
2023-03-20T22:58:00.031Z,36.99
2023-03-20T23:00:35.238Z,37.00
2023-03-20T23:03:17.267Z,37.10
2023-03-20T23:05:51.154Z,36.90
2023-03-20T23:08:19.212Z,36.96
2023-03-20T23:10:48.229Z,36.96
2023-03-20T23:13:16.479Z,37.03
2023-03-20T23:15:47.619Z,36.88
2023-03-20T23:18:15.917Z,36.83
2023-03-20T23:20:43.979Z,36.73
2023-03-20T23:23:11.902Z,36.95
2023-03-20T23:25:40.591Z,36.75
2023-03-20T23:28:08.999Z,36.64
2023-03-20T23:30:45.194Z,37.02
2023-03-20T23:33:18.733Z,36.83
2023-03-20T23:35:48.352Z,36.83
2023-03-20T23:38:16.490Z,36.75
2023-03-20T23:40:49.763Z,36.93
2023-03-20T23:43:17.806Z,36.65
2023-03-20T23:45:45.828Z,36.94
2023-03-20T23:48:14.040Z,36.68
2023-03-20T23:50:52.596Z,36.92
2023-03-20T23:53:21.673Z,36.94
2023-03-20T23:55:49.761Z,36.89
2023-03-20T23:58:17.810Z,36.57
